sensor_id;sensor_type;location;lat;lon;timestamp;temperature;humidity
18624;DHT22;9441;51.420;7.036;2022-07-06T00:00:18;15.20;1.00
18624;DHT22;9441;51.420;7.036;2022-07-06T00:01:20;15.20;1.00
18624;DHT22;9441;51.420;7.036;2022-07-06T00:02:22;15.20;1.00
18624;DHT22;9441;51.420;7.036;2022-07-06T00:03:23;15.10;1.00
18624;DHT22;9441;51.420;7.036;2022-07-06T00:04:25;15.20;1.00
18624;DHT22;9441;51.420;7.036;2022-07-06T00:05:28;15.20;1.00
18624;DHT22;9441;51.420;7.036;2022-07-06T00:06:30;15.10;1.00
18624;DHT22;9441;51.420;7.036;2022-07-06T00:07:31;15.20;1.00
18624;DHT22;9441;51.420;7.036;2022-07-06T00:08:33;15.20;1.00
18624;DHT22;9441;51.420;7.036;2022-07-06T00:09:34;15.40;1.00
18624;DHT22;9441;51.420;7.036;2022-07-06T00:10:36;15.40;1.00
18624;DHT22;9441;51.420;7.036;2022-07-06T00:11:37;15.40;1.00
18624;DHT22;9441;51.420;7.036;2022-07-06T00:12:39;15.40;1.00
18624;DHT22;9441;51.420;7.036;2022-07-06T00:13:40;15.20;1.00
18624;DHT22;9441;51.420;7.036;2022-07-06T00:14:43;15.30;1.00
18624;DHT22;9441;51.420;7.036;2022-07-06T00:15:44;15.40;1.00
18624;DHT22;9441;51.420;7.036;2022-07-06T00:16:46;15.40;1.00
18624;DHT22;9441;51.420;7.036;2022-07-06T00:17:47;15.30;1.00
18624;DHT22;9441;51.420;7.036;2022-07-06T00:18:49;15.30;1.00
18624;DHT22;9441;51.420;7.036;2022-07-06T00:19:50;15.20;1.00
18624;DHT22;9441;51.420;7.036;2022-07-06T00:20:54;15.20;1.00
18624;DHT22;9441;51.420;7.036;2022-07-06T00:21:55;15.30;1.00
18624;DHT22;9441;51.420;7.036;2022-07-06T00:22:57;15.30;1.00
18624;DHT22;9441;51.420;7.036;2022-07-06T00:23:58;15.40;1.00
18624;DHT22;9441;51.420;7.036;2022-07-06T00:25:00;15.50;1.00
18624;DHT22;9441;51.420;7.036;2022-07-06T00:26:01;15.40;1.00
18624;DHT22;9441;51.420;7.036;2022-07-06T00:27:04;15.40;1.00
18624;DHT22;9441;51.420;7.036;2022-07-06T00:28:05;15.40;1.00
18624;DHT22;9441;51.420;7.036;2022-07-06T00:29:07;15.30;1.00
18624;DHT22;9441;51.420;7.036;2022-07-06T00:30:09;15.30;1.00
18624;DHT22;9441;51.420;7.036;2022-07-06T00:31:11;15.20;1.00
18624;DHT22;9441;51.420;7.036;2022-07-06T00:32:13;15.10;1.00
18624;DHT22;9441;51.420;7.036;2022-07-06T00:33:16;15.30;1.00
18624;DHT22;9441;51.420;7.036;2022-07-06T00:34:17;15.30;1.00
18624;DHT22;9441;51.420;7.036;2022-07-06T00:35:19;15.40;1.00
18624;DHT22;9441;51.420;7.036;2022-07-06T00:36:22;15.40;1.00
18624;DHT22;9441;51.420;7.036;2022-07-06T00:37:24;15.40;1.00
18624;DHT22;9441;51.420;7.036;2022-07-06T00:38:25;15.30;1.00
18624;DHT22;9441;51.420;7.036;2022-07-06T00:39:27;15.10;1.00
18624;DHT22;9441;51.420;7.036;2022-07-06T00:40:29;14.80;50.10
18624;DHT22;9441;51.420;7.036;2022-07-06T00:41:32;14.90;99.90
18624;DHT22;9441;51.420;7.036;2022-07-06T00:42:40;14.90;99.90
18624;DHT22;9441;51.420;7.036;2022-07-06T00:43:53;15.00;99.90
18624;DHT22;9441;51.420;7.036;2022-07-06T00:44:56;14.80;99.90
18624;DHT22;9441;51.420;7.036;2022-07-06T00:45:57;14.80;99.90
18624;DHT22;9441;51.420;7.036;2022-07-06T00:46:59;14.80;1.00
18624;DHT22;9441;51.420;7.036;2022-07-06T00:48:00;14.80;1.00
18624;DHT22;9441;51.420;7.036;2022-07-06T00:49:03;14.60;1.00
18624;DHT22;9441;51.420;7.036;2022-07-06T00:50:07;14.70;1.00
18624;DHT22;9441;51.420;7.036;2022-07-06T00:51:25;14.60;1.00
18624;DHT22;9441;51.420;7.036;2022-07-06T00:52:28;14.60;1.00
18624;DHT22;9441;51.420;7.036;2022-07-06T00:53:30;14.60;1.00
18624;DHT22;9441;51.420;7.036;2022-07-06T00:54:32;14.70;1.00
18624;DHT22;9441;51.420;7.036;2022-07-06T00:55:36;14.70;1.00
18624;DHT22;9441;51.420;7.036;2022-07-06T00:56:40;14.90;60.60
18624;DHT22;9441;51.420;7.036;2022-07-06T00:57:42;14.90;1.00
18624;DHT22;9441;51.420;7.036;2022-07-06T00:58:43;14.80;27.20
18624;DHT22;9441;51.420;7.036;2022-07-06T00:59:46;14.90;13.10
18624;DHT22;9441;51.420;7.036;2022-07-06T01:00:47;14.80;1.00
18624;DHT22;9441;51.420;7.036;2022-07-06T01:01:49;14.70;1.00
18624;DHT22;9441;51.420;7.036;2022-07-06T01:02:51;14.80;1.00
18624;DHT22;9441;51.420;7.036;2022-07-06T01:03:54;14.90;2.50
18624;DHT22;9441;51.420;7.036;2022-07-06T01:04:55;14.80;1.00
18624;DHT22;9441;51.420;7.036;2022-07-06T01:05:57;14.90;99.90
18624;DHT22;9441;51.420;7.036;2022-07-06T01:07:00;14.70;1.00
18624;DHT22;9441;51.420;7.036;2022-07-06T01:08:03;14.80;99.90
18624;DHT22;9441;51.420;7.036;2022-07-06T01:09:05;14.80;99.90
18624;DHT22;9441;51.420;7.036;2022-07-06T01:10:08;14.90;99.90
18624;DHT22;9441;51.420;7.036;2022-07-06T01:11:10;14.90;99.90
18624;DHT22;9441;51.420;7.036;2022-07-06T01:12:12;14.80;99.90
18624;DHT22;9441;51.420;7.036;2022-07-06T01:13:13;14.80;99.90
18624;DHT22;9441;51.420;7.036;2022-07-06T01:14:16;14.80;99.90
18624;DHT22;9441;51.420;7.036;2022-07-06T01:15:20;14.50;99.90
18624;DHT22;9441;51.420;7.036;2022-07-06T01:16:23;14.50;99.90
18624;DHT22;9441;51.420;7.036;2022-07-06T01:17:25;14.60;99.90
18624;DHT22;9441;51.420;7.036;2022-07-06T01:18:28;14.50;1.00
18624;DHT22;9441;51.420;7.036;2022-07-06T01:19:29;14.30;1.00
18624;DHT22;9441;51.420;7.036;2022-07-06T01:20:32;14.40;1.00
18624;DHT22;9441;51.420;7.036;2022-07-06T01:21:33;14.60;1.00
18624;DHT22;9441;51.420;7.036;2022-07-06T01:22:36;14.70;1.00
18624;DHT22;9441;51.420;7.036;2022-07-06T01:23:41;14.80;1.00
18624;DHT22;9441;51.420;7.036;2022-07-06T01:24:43;14.80;1.00
18624;DHT22;9441;51.420;7.036;2022-07-06T01:25:44;14.70;1.00
18624;DHT22;9441;51.420;7.036;2022-07-06T01:26:47;14.50;1.00
18624;DHT22;9441;51.420;7.036;2022-07-06T01:27:49;14.50;1.00
18624;DHT22;9441;51.420;7.036;2022-07-06T01:28:52;14.70;1.00
18624;DHT22;9441;51.420;7.036;2022-07-06T01:29:53;14.80;1.00
18624;DHT22;9441;51.420;7.036;2022-07-06T01:30:55;14.70;1.00
18624;DHT22;9441;51.420;7.036;2022-07-06T01:31:56;14.30;1.00
18624;DHT22;9441;51.420;7.036;2022-07-06T01:33:00;14.40;49.50
18624;DHT22;9441;51.420;7.036;2022-07-06T01:34:01;14.40;66.10
18624;DHT22;9441;51.420;7.036;2022-07-06T01:35:05;14.50;99.90
18624;DHT22;9441;51.420;7.036;2022-07-06T01:36:09;14.40;1.00
18624;DHT22;9441;51.420;7.036;2022-07-06T01:37:11;14.30;1.00
18624;DHT22;9441;51.420;7.036;2022-07-06T01:38:12;14.20;99.90
18624;DHT22;9441;51.420;7.036;2022-07-06T01:39:16;14.50;1.00
18624;DHT22;9441;51.420;7.036;2022-07-06T01:40:17;14.50;99.90
18624;DHT22;9441;51.420;7.036;2022-07-06T01:41:20;14.50;99.90
18624;DHT22;9441;51.420;7.036;2022-07-06T01:42:21;14.50;99.90
18624;DHT22;9441;51.420;7.036;2022-07-06T01:43:23;14.40;84.10
18624;DHT22;9441;51.420;7.036;2022-07-06T01:44:25;14.50;99.90
18624;DHT22;9441;51.420;7.036;2022-07-06T01:45:31;14.40;1.00
18624;DHT22;9441;51.420;7.036;2022-07-06T01:46:34;14.30;78.80
18624;DHT22;9441;51.420;7.036;2022-07-06T01:47:35;14.40;99.90
18624;DHT22;9441;51.420;7.036;2022-07-06T01:48:38;14.30;99.90
18624;DHT22;9441;51.420;7.036;2022-07-06T01:49:39;14.10;82.70
18624;DHT22;9441;51.420;7.036;2022-07-06T01:50:41;14.20;99.90
18624;DHT22;9441;51.420;7.036;2022-07-06T01:51:44;14.10;99.90
18624;DHT22;9441;51.420;7.036;2022-07-06T01:52:46;13.90;1.00
18624;DHT22;9441;51.420;7.036;2022-07-06T01:53:47;13.80;1.00
18624;DHT22;9441;51.420;7.036;2022-07-06T01:54:52;13.80;99.90
18624;DHT22;9441;51.420;7.036;2022-07-06T01:55:54;14.10;1.00
18624;DHT22;9441;51.420;7.036;2022-07-06T01:56:56;14.20;1.00
18624;DHT22;9441;51.420;7.036;2022-07-06T01:57:57;14.00;1.00
18624;DHT22;9441;51.420;7.036;2022-07-06T01:59:00;13.80;1.00
18624;DHT22;9441;51.420;7.036;2022-07-06T02:00:04;13.80;99.90
18624;DHT22;9441;51.420;7.036;2022-07-06T02:01:15;13.90;99.90
18624;DHT22;9441;51.420;7.036;2022-07-06T02:02:17;14.00;99.90
18624;DHT22;9441;51.420;7.036;2022-07-06T02:03:19;13.90;1.00
18624;DHT22;9441;51.420;7.036;2022-07-06T02:04:20;13.90;72.80
18624;DHT22;9441;51.420;7.036;2022-07-06T02:05:22;13.90;1.00
18624;DHT22;9441;51.420;7.036;2022-07-06T02:06:24;13.90;99.90
18624;DHT22;9441;51.420;7.036;2022-07-06T02:07:27;14.00;1.00
18624;DHT22;9441;51.420;7.036;2022-07-06T02:08:29;13.90;1.00
18624;DHT22;9441;51.420;7.036;2022-07-06T02:09:31;13.90;1.00
18624;DHT22;9441;51.420;7.036;2022-07-06T02:10:32;14.00;49.30
18624;DHT22;9441;51.420;7.036;2022-07-06T02:11:34;14.10;1.00
18624;DHT22;9441;51.420;7.036;2022-07-06T02:12:35;13.90;1.00
18624;DHT22;9441;51.420;7.036;2022-07-06T02:13:38;13.80;5.90
18624;DHT22;9441;51.420;7.036;2022-07-06T02:14:41;13.80;99.90
18624;DHT22;9441;51.420;7.036;2022-07-06T02:15:43;13.90;1.00
18624;DHT22;9441;51.420;7.036;2022-07-06T02:16:45;13.90;1.00
18624;DHT22;9441;51.420;7.036;2022-07-06T02:17:51;13.80;99.90
18624;DHT22;9441;51.420;7.036;2022-07-06T02:18:52;13.70;99.90
18624;DHT22;9441;51.420;7.036;2022-07-06T02:19:54;13.70;1.00
18624;DHT22;9441;51.420;7.036;2022-07-06T02:20:56;13.90;99.90
18624;DHT22;9441;51.420;7.036;2022-07-06T02:21:58;13.70;1.00
18624;DHT22;9441;51.420;7.036;2022-07-06T02:23:00;13.90;99.90
18624;DHT22;9441;51.420;7.036;2022-07-06T02:24:03;13.80;1.00
18624;DHT22;9441;51.420;7.036;2022-07-06T02:25:05;13.70;1.00
18624;DHT22;9441;51.420;7.036;2022-07-06T02:26:07;13.80;1.00
18624;DHT22;9441;51.420;7.036;2022-07-06T02:27:09;13.70;1.00
18624;DHT22;9441;51.420;7.036;2022-07-06T02:28:10;13.70;1.00
18624;DHT22;9441;51.420;7.036;2022-07-06T02:29:12;13.80;99.90
18624;DHT22;9441;51.420;7.036;2022-07-06T02:30:14;13.80;99.90
18624;DHT22;9441;51.420;7.036;2022-07-06T02:31:16;13.70;1.00
18624;DHT22;9441;51.420;7.036;2022-07-06T02:32:20;13.80;1.00
18624;DHT22;9441;51.420;7.036;2022-07-06T02:33:24;13.80;1.00
18624;DHT22;9441;51.420;7.036;2022-07-06T02:34:25;13.80;1.00
18624;DHT22;9441;51.420;7.036;2022-07-06T02:35:29;13.80;1.00
18624;DHT22;9441;51.420;7.036;2022-07-06T02:36:30;13.80;99.90
18624;DHT22;9441;51.420;7.036;2022-07-06T02:37:34;13.70;99.90
18624;DHT22;9441;51.420;7.036;2022-07-06T02:38:36;13.80;1.00
18624;DHT22;9441;51.420;7.036;2022-07-06T02:39:38;13.60;99.90
18624;DHT22;9441;51.420;7.036;2022-07-06T02:40:39;13.50;1.00
18624;DHT22;9441;51.420;7.036;2022-07-06T02:41:42;13.40;1.00
18624;DHT22;9441;51.420;7.036;2022-07-06T02:42:43;13.40;99.90
18624;DHT22;9441;51.420;7.036;2022-07-06T02:43:46;13.50;99.90
18624;DHT22;9441;51.420;7.036;2022-07-06T02:44:47;13.50;1.00
18624;DHT22;9441;51.420;7.036;2022-07-06T02:45:50;13.60;1.00
18624;DHT22;9441;51.420;7.036;2022-07-06T02:46:52;13.60;1.00
18624;DHT22;9441;51.420;7.036;2022-07-06T02:47:54;13.60;1.00
18624;DHT22;9441;51.420;7.036;2022-07-06T02:48:57;13.60;1.00
18624;DHT22;9441;51.420;7.036;2022-07-06T02:49:59;13.60;1.00
18624;DHT22;9441;51.420;7.036;2022-07-06T02:51:01;13.70;1.00
18624;DHT22;9441;51.420;7.036;2022-07-06T02:52:04;13.40;99.90
18624;DHT22;9441;51.420;7.036;2022-07-06T02:53:06;13.50;1.00
18624;DHT22;9441;51.420;7.036;2022-07-06T02:54:10;13.50;1.00
18624;DHT22;9441;51.420;7.036;2022-07-06T02:55:11;13.40;1.00
18624;DHT22;9441;51.420;7.036;2022-07-06T02:56:14;13.50;35.80
18624;DHT22;9441;51.420;7.036;2022-07-06T02:57:16;13.30;1.00
18624;DHT22;9441;51.420;7.036;2022-07-06T02:58:18;13.10;13.60
18624;DHT22;9441;51.420;7.036;2022-07-06T02:59:20;13.20;1.00
18624;DHT22;9441;51.420;7.036;2022-07-06T03:00:23;13.10;1.00
18624;DHT22;9441;51.420;7.036;2022-07-06T03:01:26;13.10;1.00
18624;DHT22;9441;51.420;7.036;2022-07-06T03:02:28;13.20;1.00
18624;DHT22;9441;51.420;7.036;2022-07-06T03:03:29;13.10;1.00
18624;DHT22;9441;51.420;7.036;2022-07-06T03:04:32;13.10;1.00
18624;DHT22;9441;51.420;7.036;2022-07-06T03:05:34;13.00;1.00
18624;DHT22;9441;51.420;7.036;2022-07-06T03:06:36;13.00;99.90
18624;DHT22;9441;51.420;7.036;2022-07-06T03:07:37;13.10;1.00
18624;DHT22;9441;51.420;7.036;2022-07-06T03:08:40;13.10;1.00
18624;DHT22;9441;51.420;7.036;2022-07-06T03:09:42;13.10;99.90
18624;DHT22;9441;51.420;7.036;2022-07-06T03:10:44;13.00;1.00
18624;DHT22;9441;51.420;7.036;2022-07-06T03:11:46;13.10;99.90
18624;DHT22;9441;51.420;7.036;2022-07-06T03:12:49;13.10;1.00
18624;DHT22;9441;51.420;7.036;2022-07-06T03:13:50;13.00;1.00
18624;DHT22;9441;51.420;7.036;2022-07-06T03:14:52;13.00;99.90
18624;DHT22;9441;51.420;7.036;2022-07-06T03:15:54;13.00;99.90
18624;DHT22;9441;51.420;7.036;2022-07-06T03:16:56;13.00;1.00
18624;DHT22;9441;51.420;7.036;2022-07-06T03:17:58;12.90;1.00
18624;DHT22;9441;51.420;7.036;2022-07-06T03:19:00;12.90;1.00
18624;DHT22;9441;51.420;7.036;2022-07-06T03:20:01;12.90;1.00
18624;DHT22;9441;51.420;7.036;2022-07-06T03:21:03;12.80;1.00
18624;DHT22;9441;51.420;7.036;2022-07-06T03:22:06;12.80;99.90
18624;DHT22;9441;51.420;7.036;2022-07-06T03:23:07;12.80;99.90
18624;DHT22;9441;51.420;7.036;2022-07-06T03:24:10;13.00;99.90
18624;DHT22;9441;51.420;7.036;2022-07-06T03:25:12;13.10;99.90
18624;DHT22;9441;51.420;7.036;2022-07-06T03:26:15;13.20;99.90
18624;DHT22;9441;51.420;7.036;2022-07-06T03:27:17;13.20;99.90
18624;DHT22;9441;51.420;7.036;2022-07-06T03:28:19;13.20;99.90
18624;DHT22;9441;51.420;7.036;2022-07-06T03:29:21;13.20;99.90
18624;DHT22;9441;51.420;7.036;2022-07-06T03:30:23;13.30;99.90
18624;DHT22;9441;51.420;7.036;2022-07-06T03:31:28;13.40;99.90
18624;DHT22;9441;51.420;7.036;2022-07-06T03:32:31;13.30;99.90
18624;DHT22;9441;51.420;7.036;2022-07-06T03:33:33;13.30;1.00
18624;DHT22;9441;51.420;7.036;2022-07-06T03:34:36;13.30;1.00
18624;DHT22;9441;51.420;7.036;2022-07-06T03:35:37;13.30;99.90
18624;DHT22;9441;51.420;7.036;2022-07-06T03:36:41;13.50;99.90
18624;DHT22;9441;51.420;7.036;2022-07-06T03:37:43;13.50;99.90
18624;DHT22;9441;51.420;7.036;2022-07-06T03:38:45;13.40;1.00
18624;DHT22;9441;51.420;7.036;2022-07-06T03:39:47;13.40;1.00
18624;DHT22;9441;51.420;7.036;2022-07-06T03:40:50;13.50;87.60
18624;DHT22;9441;51.420;7.036;2022-07-06T03:41:52;13.60;1.00
18624;DHT22;9441;51.420;7.036;2022-07-06T03:42:54;13.60;1.00
18624;DHT22;9441;51.420;7.036;2022-07-06T03:43:56;13.60;1.00
18624;DHT22;9441;51.420;7.036;2022-07-06T03:44:57;13.60;1.00
18624;DHT22;9441;51.420;7.036;2022-07-06T03:46:01;13.40;67.60
18624;DHT22;9441;51.420;7.036;2022-07-06T03:47:02;13.60;1.00
18624;DHT22;9441;51.420;7.036;2022-07-06T03:48:05;13.60;1.00
18624;DHT22;9441;51.420;7.036;2022-07-06T03:49:08;13.50;51.40
18624;DHT22;9441;51.420;7.036;2022-07-06T03:50:11;13.50;99.90
18624;DHT22;9441;51.420;7.036;2022-07-06T03:51:13;13.50;99.90
18624;DHT22;9441;51.420;7.036;2022-07-06T03:52:15;13.40;99.90
18624;DHT22;9441;51.420;7.036;2022-07-06T03:53:23;13.50;1.00
18624;DHT22;9441;51.420;7.036;2022-07-06T03:54:25;13.40;99.90
18624;DHT22;9441;51.420;7.036;2022-07-06T03:55:31;13.40;99.90
18624;DHT22;9441;51.420;7.036;2022-07-06T03:56:39;13.40;1.00
18624;DHT22;9441;51.420;7.036;2022-07-06T03:57:45;13.40;1.00
18624;DHT22;9441;51.420;7.036;2022-07-06T03:58:50;13.20;1.00
18624;DHT22;9441;51.420;7.036;2022-07-06T03:59:52;13.20;53.90
18624;DHT22;9441;51.420;7.036;2022-07-06T04:00:56;13.20;99.90
18624;DHT22;9441;51.420;7.036;2022-07-06T04:01:57;13.30;99.90
18624;DHT22;9441;51.420;7.036;2022-07-06T04:03:00;13.30;99.90
18624;DHT22;9441;51.420;7.036;2022-07-06T04:04:04;13.20;99.90
18624;DHT22;9441;51.420;7.036;2022-07-06T04:05:08;13.30;99.90
18624;DHT22;9441;51.420;7.036;2022-07-06T04:06:10;13.40;99.90
18624;DHT22;9441;51.420;7.036;2022-07-06T04:07:12;13.40;99.90
18624;DHT22;9441;51.420;7.036;2022-07-06T04:08:14;13.50;99.90
18624;DHT22;9441;51.420;7.036;2022-07-06T04:09:22;13.60;99.90
18624;DHT22;9441;51.420;7.036;2022-07-06T04:10:23;13.70;99.90
18624;DHT22;9441;51.420;7.036;2022-07-06T04:11:26;13.70;99.90
18624;DHT22;9441;51.420;7.036;2022-07-06T04:12:28;13.70;99.90
18624;DHT22;9441;51.420;7.036;2022-07-06T04:13:30;13.60;99.90
18624;DHT22;9441;51.420;7.036;2022-07-06T04:14:32;13.60;99.90
18624;DHT22;9441;51.420;7.036;2022-07-06T04:15:36;13.60;99.90
18624;DHT22;9441;51.420;7.036;2022-07-06T04:16:37;13.60;99.90
18624;DHT22;9441;51.420;7.036;2022-07-06T04:17:39;13.60;99.90
18624;DHT22;9441;51.420;7.036;2022-07-06T04:18:53;13.60;99.90
18624;DHT22;9441;51.420;7.036;2022-07-06T04:19:55;13.50;99.90
18624;DHT22;9441;51.420;7.036;2022-07-06T04:20:56;13.60;99.90
18624;DHT22;9441;51.420;7.036;2022-07-06T04:21:59;13.50;99.90
18624;DHT22;9441;51.420;7.036;2022-07-06T04:23:01;13.60;99.90
18624;DHT22;9441;51.420;7.036;2022-07-06T04:24:04;13.60;99.90
18624;DHT22;9441;51.420;7.036;2022-07-06T04:25:08;13.60;99.90
18624;DHT22;9441;51.420;7.036;2022-07-06T04:26:11;13.70;99.90
18624;DHT22;9441;51.420;7.036;2022-07-06T04:27:13;13.70;99.90
18624;DHT22;9441;51.420;7.036;2022-07-06T04:28:16;13.70;99.90
18624;DHT22;9441;51.420;7.036;2022-07-06T04:29:18;13.80;99.90
18624;DHT22;9441;51.420;7.036;2022-07-06T04:30:19;13.80;99.90
18624;DHT22;9441;51.420;7.036;2022-07-06T04:31:22;13.80;99.90
18624;DHT22;9441;51.420;7.036;2022-07-06T04:32:24;13.80;99.90
18624;DHT22;9441;51.420;7.036;2022-07-06T04:33:28;13.80;99.90
18624;DHT22;9441;51.420;7.036;2022-07-06T04:34:29;13.80;99.90
18624;DHT22;9441;51.420;7.036;2022-07-06T04:35:31;14.00;99.90
18624;DHT22;9441;51.420;7.036;2022-07-06T04:36:33;14.10;99.90
18624;DHT22;9441;51.420;7.036;2022-07-06T04:37:35;14.10;99.90
18624;DHT22;9441;51.420;7.036;2022-07-06T04:38:36;14.20;99.90
18624;DHT22;9441;51.420;7.036;2022-07-06T04:39:41;13.90;1.00
18624;DHT22;9441;51.420;7.036;2022-07-06T04:40:42;13.90;1.00
18624;DHT22;9441;51.420;7.036;2022-07-06T04:41:49;14.00;1.00
18624;DHT22;9441;51.420;7.036;2022-07-06T04:42:50;13.70;1.00
18624;DHT22;9441;51.420;7.036;2022-07-06T04:43:53;13.60;1.00
18624;DHT22;9441;51.420;7.036;2022-07-06T04:44:56;13.80;99.90
18624;DHT22;9441;51.420;7.036;2022-07-06T04:45:57;13.90;99.90
18624;DHT22;9441;51.420;7.036;2022-07-06T04:47:01;13.90;99.90
18624;DHT22;9441;51.420;7.036;2022-07-06T04:48:04;13.80;1.00
18624;DHT22;9441;51.420;7.036;2022-07-06T04:49:07;13.80;99.90
18624;DHT22;9441;51.420;7.036;2022-07-06T04:50:09;13.90;99.90
18624;DHT22;9441;51.420;7.036;2022-07-06T04:51:11;13.80;1.00
18624;DHT22;9441;51.420;7.036;2022-07-06T04:52:14;13.90;99.90
18624;DHT22;9441;51.420;7.036;2022-07-06T04:53:16;14.10;99.90
18624;DHT22;9441;51.420;7.036;2022-07-06T04:54:18;14.00;1.00
18624;DHT22;9441;51.420;7.036;2022-07-06T04:55:19;14.10;1.00
18624;DHT22;9441;51.420;7.036;2022-07-06T04:56:22;14.10;1.00
18624;DHT22;9441;51.420;7.036;2022-07-06T04:57:24;14.00;1.00
18624;DHT22;9441;51.420;7.036;2022-07-06T04:58:29;14.00;99.90
18624;DHT22;9441;51.420;7.036;2022-07-06T04:59:32;14.00;1.00
18624;DHT22;9441;51.420;7.036;2022-07-06T05:00:36;14.10;99.90
18624;DHT22;9441;51.420;7.036;2022-07-06T05:01:37;14.00;99.90
18624;DHT22;9441;51.420;7.036;2022-07-06T05:02:39;14.10;79.30
18624;DHT22;9441;51.420;7.036;2022-07-06T05:03:40;14.10;1.00
18624;DHT22;9441;51.420;7.036;2022-07-06T05:04:44;14.20;1.00
18624;DHT22;9441;51.420;7.036;2022-07-06T05:05:45;14.20;1.00
18624;DHT22;9441;51.420;7.036;2022-07-06T05:06:48;14.10;1.00
18624;DHT22;9441;51.420;7.036;2022-07-06T05:07:49;14.20;1.00
18624;DHT22;9441;51.420;7.036;2022-07-06T05:08:51;14.30;1.00
18624;DHT22;9441;51.420;7.036;2022-07-06T05:09:52;14.40;1.00
18624;DHT22;9441;51.420;7.036;2022-07-06T05:10:54;14.30;99.90
18624;DHT22;9441;51.420;7.036;2022-07-06T05:11:57;14.30;1.00
18624;DHT22;9441;51.420;7.036;2022-07-06T05:12:58;14.50;99.90
18624;DHT22;9441;51.420;7.036;2022-07-06T05:14:02;14.60;99.90
18624;DHT22;9441;51.420;7.036;2022-07-06T05:15:06;14.40;1.00
18624;DHT22;9441;51.420;7.036;2022-07-06T05:16:09;14.50;99.90
18624;DHT22;9441;51.420;7.036;2022-07-06T05:17:10;14.60;1.00
18624;DHT22;9441;51.420;7.036;2022-07-06T05:18:13;14.70;99.90
18624;DHT22;9441;51.420;7.036;2022-07-06T05:19:16;14.60;1.00
18624;DHT22;9441;51.420;7.036;2022-07-06T05:20:20;14.50;1.00
18624;DHT22;9441;51.420;7.036;2022-07-06T05:21:23;14.50;99.90
18624;DHT22;9441;51.420;7.036;2022-07-06T05:22:25;14.50;99.90
18624;DHT22;9441;51.420;7.036;2022-07-06T05:23:27;14.60;99.90
18624;DHT22;9441;51.420;7.036;2022-07-06T05:24:30;14.50;1.00
18624;DHT22;9441;51.420;7.036;2022-07-06T05:25:31;14.50;1.00
18624;DHT22;9441;51.420;7.036;2022-07-06T05:26:34;14.60;1.00
18624;DHT22;9441;51.420;7.036;2022-07-06T05:27:35;14.40;1.00
18624;DHT22;9441;51.420;7.036;2022-07-06T05:28:37;14.50;1.00
18624;DHT22;9441;51.420;7.036;2022-07-06T05:29:41;14.60;99.90
18624;DHT22;9441;51.420;7.036;2022-07-06T05:30:45;14.60;99.90
18624;DHT22;9441;51.420;7.036;2022-07-06T05:31:48;14.70;1.00
18624;DHT22;9441;51.420;7.036;2022-07-06T05:32:49;14.80;1.00
18624;DHT22;9441;51.420;7.036;2022-07-06T05:33:51;14.90;1.00
18624;DHT22;9441;51.420;7.036;2022-07-06T05:34:52;14.60;1.00
18624;DHT22;9441;51.420;7.036;2022-07-06T05:35:55;14.50;99.90
18624;DHT22;9441;51.420;7.036;2022-07-06T05:37:00;14.70;99.90
18624;DHT22;9441;51.420;7.036;2022-07-06T05:38:02;14.80;1.00
18624;DHT22;9441;51.420;7.036;2022-07-06T05:39:04;14.70;1.00
18624;DHT22;9441;51.420;7.036;2022-07-06T05:40:06;14.70;1.00
18624;DHT22;9441;51.420;7.036;2022-07-06T05:41:08;14.80;1.00
18624;DHT22;9441;51.420;7.036;2022-07-06T05:42:10;14.90;1.00
18624;DHT22;9441;51.420;7.036;2022-07-06T05:43:12;14.90;1.00
18624;DHT22;9441;51.420;7.036;2022-07-06T05:44:14;15.00;1.00
18624;DHT22;9441;51.420;7.036;2022-07-06T05:45:16;15.00;99.90
18624;DHT22;9441;51.420;7.036;2022-07-06T05:46:20;15.00;85.10
18624;DHT22;9441;51.420;7.036;2022-07-06T05:47:22;14.90;1.00
18624;DHT22;9441;51.420;7.036;2022-07-06T05:48:42;14.90;99.90
18624;DHT22;9441;51.420;7.036;2022-07-06T05:50:01;14.90;1.00
18624;DHT22;9441;51.420;7.036;2022-07-06T05:51:21;15.10;1.00
18624;DHT22;9441;51.420;7.036;2022-07-06T05:52:22;15.10;1.00
18624;DHT22;9441;51.420;7.036;2022-07-06T05:53:24;15.00;1.00
18624;DHT22;9441;51.420;7.036;2022-07-06T05:54:29;15.00;1.00
18624;DHT22;9441;51.420;7.036;2022-07-06T05:55:31;15.20;1.00
18624;DHT22;9441;51.420;7.036;2022-07-06T05:56:35;15.20;1.00
18624;DHT22;9441;51.420;7.036;2022-07-06T05:57:36;15.20;99.90
18624;DHT22;9441;51.420;7.036;2022-07-06T05:58:39;15.10;99.90
18624;DHT22;9441;51.420;7.036;2022-07-06T05:59:40;15.00;99.90
18624;DHT22;9441;51.420;7.036;2022-07-06T06:00:42;15.00;99.90
18624;DHT22;9441;51.420;7.036;2022-07-06T06:01:50;15.20;99.90
18624;DHT22;9441;51.420;7.036;2022-07-06T06:02:57;15.20;99.90
18624;DHT22;9441;51.420;7.036;2022-07-06T06:03:59;15.30;99.90
18624;DHT22;9441;51.420;7.036;2022-07-06T06:05:01;15.00;71.00
18624;DHT22;9441;51.420;7.036;2022-07-06T06:06:03;15.00;99.90
18624;DHT22;9441;51.420;7.036;2022-07-06T06:07:05;15.20;99.90
18624;DHT22;9441;51.420;7.036;2022-07-06T06:08:06;15.30;1.00
18624;DHT22;9441;51.420;7.036;2022-07-06T06:09:09;15.30;1.00
18624;DHT22;9441;51.420;7.036;2022-07-06T06:10:11;15.10;1.00
18624;DHT22;9441;51.420;7.036;2022-07-06T06:11:13;15.20;1.00
18624;DHT22;9441;51.420;7.036;2022-07-06T06:12:15;15.30;1.00
18624;DHT22;9441;51.420;7.036;2022-07-06T06:13:17;15.40;1.00
18624;DHT22;9441;51.420;7.036;2022-07-06T06:14:20;15.40;1.00
18624;DHT22;9441;51.420;7.036;2022-07-06T06:15:22;15.50;1.00
18624;DHT22;9441;51.420;7.036;2022-07-06T06:16:23;15.60;1.00
18624;DHT22;9441;51.420;7.036;2022-07-06T06:17:26;15.30;99.90
18624;DHT22;9441;51.420;7.036;2022-07-06T06:18:27;15.40;1.00
18624;DHT22;9441;51.420;7.036;2022-07-06T06:19:30;15.30;99.90
18624;DHT22;9441;51.420;7.036;2022-07-06T06:20:31;15.40;99.90
18624;DHT22;9441;51.420;7.036;2022-07-06T06:21:33;15.40;99.90
18624;DHT22;9441;51.420;7.036;2022-07-06T06:22:44;15.50;99.90
18624;DHT22;9441;51.420;7.036;2022-07-06T06:23:46;15.50;99.90
18624;DHT22;9441;51.420;7.036;2022-07-06T06:24:49;15.40;44.80
18624;DHT22;9441;51.420;7.036;2022-07-06T06:25:50;15.50;35.20
18624;DHT22;9441;51.420;7.036;2022-07-06T06:26:52;15.60;1.00
18624;DHT22;9441;51.420;7.036;2022-07-06T06:27:53;15.60;1.00
18624;DHT22;9441;51.420;7.036;2022-07-06T06:28:55;15.70;1.00
18624;DHT22;9441;51.420;7.036;2022-07-06T06:29:56;15.80;1.00
18624;DHT22;9441;51.420;7.036;2022-07-06T06:30:58;15.70;1.00
18624;DHT22;9441;51.420;7.036;2022-07-06T06:32:00;15.60;1.00
18624;DHT22;9441;51.420;7.036;2022-07-06T06:33:10;15.70;1.00
18624;DHT22;9441;51.420;7.036;2022-07-06T06:34:13;15.80;1.00
18624;DHT22;9441;51.420;7.036;2022-07-06T06:35:14;15.70;99.90
18624;DHT22;9441;51.420;7.036;2022-07-06T06:36:16;15.80;99.90
18624;DHT22;9441;51.420;7.036;2022-07-06T06:37:18;15.80;99.90
18624;DHT22;9441;51.420;7.036;2022-07-06T06:38:21;15.90;99.90
18624;DHT22;9441;51.420;7.036;2022-07-06T06:39:22;15.90;99.90
18624;DHT22;9441;51.420;7.036;2022-07-06T06:40:24;16.00;99.90
18624;DHT22;9441;51.420;7.036;2022-07-06T06:41:25;16.10;99.90
18624;DHT22;9441;51.420;7.036;2022-07-06T06:42:28;16.10;99.90
18624;DHT22;9441;51.420;7.036;2022-07-06T06:43:29;16.20;99.90
18624;DHT22;9441;51.420;7.036;2022-07-06T06:44:43;16.10;21.60
18624;DHT22;9441;51.420;7.036;2022-07-06T06:45:44;16.20;18.40